createdAt,value
2018-06-11T00:01:27.013Z,14.90
2018-06-11T00:03:55.393Z,17.57
2018-06-11T00:06:23.696Z,14.23
2018-06-11T00:08:51.998Z,14.53
2018-06-11T00:11:20.289Z,15.13
2018-06-11T00:13:48.315Z,16.23
2018-06-11T00:16:16.608Z,16.17
2018-06-11T00:18:44.911Z,16.47
2018-06-11T00:21:13.239Z,15.57
2018-06-11T00:23:41.508Z,16.23
2018-06-11T00:26:09.811Z,18.03
2018-06-11T00:28:38.143Z,18.57
2018-06-11T00:31:06.447Z,17.97
2018-06-11T00:33:34.467Z,18.10
2018-06-11T00:36:02.800Z,16.47
2018-06-11T00:38:31.106Z,18.20
2018-06-11T00:40:59.406Z,18.07
2018-06-11T00:43:27.704Z,18.07
2018-06-11T00:45:55.992Z,18.20
2018-06-11T00:48:24.299Z,18.03
2018-06-11T00:50:52.656Z,17.37
2018-06-11T00:53:20.942Z,17.93
2018-06-11T00:56:00.501Z,22.60
2018-06-11T00:58:28.805Z,18.07
2018-06-11T01:00:57.085Z,19.30
2018-06-11T01:03:25.403Z,16.27
2018-06-11T01:05:53.695Z,15.30
2018-06-11T01:08:22.021Z,16.50
2018-06-11T01:10:50.333Z,14.03
2018-06-11T01:13:18.624Z,14.87
2018-06-11T01:15:46.911Z,18.43
2018-06-11T01:18:15.186Z,21.03
2018-06-11T01:20:43.495Z,17.77
2018-06-11T01:23:11.775Z,17.43
2018-06-11T01:25:40.061Z,19.27
2018-06-11T01:28:08.388Z,21.00
2018-06-11T01:30:36.660Z,23.43
2018-06-11T01:33:05.000Z,23.30
2018-06-11T01:35:33.289Z,26.90
2018-06-11T01:38:01.675Z,23.90
2018-06-11T01:40:29.963Z,21.77
2018-06-11T01:42:58.257Z,21.30
2018-06-11T01:45:26.552Z,23.90
2018-06-11T01:47:54.845Z,26.07
2018-06-11T01:50:23.177Z,25.30
2018-06-11T01:52:51.477Z,24.73
2018-06-11T01:55:19.483Z,28.53
2018-06-11T01:57:47.788Z,26.63
2018-06-11T02:00:15.814Z,23.00
2018-06-11T02:02:44.091Z,24.13
2018-06-11T02:05:12.505Z,23.63
2018-06-11T02:07:40.819Z,22.90
2018-06-11T02:10:09.320Z,23.30
2018-06-11T02:12:37.604Z,21.50
2018-06-11T02:15:05.918Z,24.33
2018-06-11T02:17:34.200Z,23.70
2018-06-11T02:20:02.538Z,23.00
2018-06-11T02:22:30.853Z,25.47
2018-06-11T02:24:59.142Z,23.97
2018-06-11T02:27:27.432Z,24.07
2018-06-11T02:29:55.723Z,23.40
2018-06-11T02:32:24.022Z,25.50
2018-06-11T02:34:52.402Z,27.43
2018-06-11T02:37:20.700Z,23.90
2018-06-11T02:39:48.980Z,25.77
2018-06-11T02:42:17.309Z,25.67
2018-06-11T02:44:45.581Z,27.13
2018-06-11T02:47:13.894Z,25.80
2018-06-11T02:49:42.194Z,28.90
2018-06-11T02:52:10.494Z,27.40
2018-06-11T02:54:38.760Z,26.50
2018-06-11T02:57:07.070Z,29.67
2018-06-11T02:59:35.089Z,30.77
2018-06-11T03:02:03.384Z,34.33
2018-06-11T03:04:31.672Z,29.20
2018-06-11T03:06:59.681Z,31.17
2018-06-11T03:09:27.690Z,33.70
2018-06-11T03:11:56.014Z,36.97
2018-06-11T03:14:30.555Z,35.03
2018-06-11T03:16:58.900Z,33.03
2018-06-11T03:19:27.191Z,37.07
2018-06-11T03:21:55.455Z,34.57
2018-06-11T03:24:23.735Z,36.07
2018-06-11T03:26:52.012Z,33.77
2018-06-11T03:29:20.314Z,31.83
2018-06-11T03:31:48.609Z,31.60
2018-06-11T03:34:16.895Z,32.30
2018-06-11T03:36:45.195Z,35.37
2018-06-11T03:39:13.485Z,36.83
2018-06-11T03:41:41.788Z,40.00
2018-06-11T03:44:10.062Z,40.53
2018-06-11T03:46:38.080Z,38.13
2018-06-11T03:49:06.357Z,36.10
2018-06-11T03:51:34.629Z,35.13
2018-06-11T03:54:02.941Z,35.60
2018-06-11T03:56:31.271Z,36.13
2018-06-11T03:58:59.281Z,46.70
2018-06-11T04:01:27.573Z,45.13
2018-06-11T04:03:55.896Z,44.07
2018-06-11T04:06:24.219Z,35.53
2018-06-11T04:08:52.505Z,33.33
2018-06-11T04:11:20.797Z,39.83
2018-06-11T04:13:49.066Z,44.30
2018-06-11T04:16:19.341Z,48.77
2018-06-11T04:18:47.634Z,54.73
2018-06-11T04:21:15.952Z,54.07
2018-06-11T04:23:44.279Z,52.20
2018-06-11T04:26:12.576Z,55.20
2018-06-11T04:28:40.842Z,48.90
2018-06-11T04:31:09.182Z,53.60
2018-06-11T04:33:37.464Z,54.57
2018-06-11T04:36:05.764Z,45.57
2018-06-11T04:38:34.071Z,47.10
2018-06-11T04:41:02.343Z,44.47
2018-06-11T04:43:30.661Z,42.33
2018-06-11T04:45:58.960Z,41.90
2018-06-11T04:48:26.984Z,39.83
2018-06-11T04:50:55.304Z,34.83
2018-06-11T04:53:23.625Z,33.13
2018-06-11T04:55:51.928Z,34.23
2018-06-11T04:58:20.220Z,34.30
2018-06-11T05:00:48.521Z,36.70
2018-06-11T05:03:16.808Z,38.50
2018-06-11T05:05:45.100Z,35.83
2018-06-11T05:08:13.402Z,39.43
2018-06-11T05:10:41.694Z,34.17
2018-06-11T05:13:09.984Z,35.40
2018-06-11T05:15:38.288Z,35.83
2018-06-11T05:18:06.575Z,34.20
2018-06-11T05:20:34.882Z,34.70
2018-06-11T05:23:03.178Z,41.53
2018-06-11T05:25:31.467Z,37.67
2018-06-11T05:27:59.493Z,38.23
2018-06-11T05:30:27.762Z,38.90
2018-06-11T05:32:56.090Z,36.67
2018-06-11T05:35:24.434Z,36.67
2018-06-11T05:37:52.726Z,36.00
2018-06-11T05:40:21.066Z,36.73
2018-06-11T05:42:49.296Z,35.53
2018-06-11T05:45:17.613Z,34.97
2018-06-11T05:47:45.888Z,34.47
2018-06-11T05:50:14.178Z,36.43
2018-06-11T05:52:42.484Z,34.53
2018-06-11T05:55:10.500Z,33.10
2018-06-11T05:57:38.810Z,33.03
2018-06-11T06:00:07.102Z,31.70
2018-06-11T06:02:35.404Z,31.27
2018-06-11T06:05:03.734Z,28.87
2018-06-11T06:07:32.051Z,29.37
2018-06-11T06:10:00.348Z,30.20
2018-06-11T06:12:28.352Z,28.57
2018-06-11T06:14:56.651Z,28.53
2018-06-11T06:17:24.928Z,27.43
2018-06-11T06:19:53.223Z,27.93
2018-06-11T06:22:21.534Z,26.50
2018-06-11T06:24:49.822Z,28.63
2018-06-11T06:27:18.167Z,26.63
2018-06-11T06:29:46.451Z,26.50
2018-06-11T06:32:14.735Z,26.33
2018-06-11T06:34:43.126Z,24.73
2018-06-11T06:37:11.083Z,26.87
2018-06-11T06:39:39.384Z,25.53
2018-06-11T06:42:07.672Z,26.90
2018-06-11T06:44:35.961Z,26.13
2018-06-11T06:47:04.293Z,25.53
2018-06-11T06:49:32.577Z,25.60
2018-06-11T06:52:00.863Z,24.37
2018-06-11T06:54:29.183Z,28.90
2018-06-11T06:56:57.475Z,26.40
2018-06-11T06:59:25.783Z,25.40
2018-06-11T07:01:54.102Z,24.73
2018-06-11T07:04:22.387Z,24.90
2018-06-11T07:06:50.684Z,24.47
2018-06-11T07:09:18.978Z,24.17
2018-06-11T07:11:47.291Z,24.23
2018-06-11T07:14:15.570Z,23.60
2018-06-11T07:16:43.839Z,24.13
2018-06-11T07:19:12.174Z,23.87
2018-06-11T07:21:40.461Z,22.60
2018-06-11T07:24:08.805Z,21.80
2018-06-11T07:26:37.097Z,23.47
2018-06-11T07:29:05.227Z,24.17
2018-06-11T07:31:33.505Z,23.60
2018-06-11T07:34:02.031Z,23.70
2018-06-11T07:36:30.343Z,24.43
2018-06-11T07:38:58.635Z,22.87
2018-06-11T07:41:26.909Z,27.17
2018-06-11T07:43:55.179Z,24.23
2018-06-11T07:46:23.474Z,26.20
2018-06-11T07:48:51.767Z,25.47
2018-06-11T07:51:20.041Z,25.97
2018-06-11T07:53:48.336Z,25.87
2018-06-11T07:56:16.619Z,27.17
2018-06-11T07:58:44.911Z,26.07
2018-06-11T08:01:13.231Z,27.27
2018-06-11T08:03:41.521Z,27.00
2018-06-11T08:06:09.815Z,26.53
2018-06-11T08:08:38.201Z,26.87
2018-06-11T08:11:06.525Z,27.03
2018-06-11T08:13:34.845Z,27.83
2018-06-11T08:16:03.131Z,27.70
2018-06-11T08:18:31.415Z,24.23
2018-06-11T08:20:59.699Z,25.47
2018-06-11T08:23:27.989Z,23.20
2018-06-11T08:25:56.293Z,25.77
2018-06-11T08:28:24.577Z,26.03
2018-06-11T08:30:52.877Z,24.20
2018-06-11T08:33:21.181Z,26.23
2018-06-11T08:35:49.471Z,26.25
2018-06-11T08:38:17.826Z,24.60
2018-06-11T08:40:46.091Z,24.43
2018-06-11T08:43:14.435Z,23.80
2018-06-11T08:45:42.741Z,22.83
2018-06-11T08:48:10.763Z,25.40
2018-06-11T08:50:39.036Z,21.50
2018-06-11T08:53:07.313Z,20.87
2018-06-11T08:55:35.634Z,22.33
2018-06-11T08:58:03.989Z,20.97
2018-06-11T09:00:32.373Z,21.43
2018-06-11T09:03:00.681Z,17.53
2018-06-11T09:05:28.969Z,16.63
2018-06-11T09:07:57.268Z,24.13
2018-06-11T09:10:25.566Z,19.23
2018-06-11T09:12:53.848Z,20.80
2018-06-11T09:15:21.906Z,20.33
2018-06-11T09:17:50.201Z,20.47
2018-06-11T09:20:18.514Z,20.50
2018-06-11T09:22:46.834Z,19.90
2018-06-11T09:25:15.110Z,19.20
2018-06-11T09:27:43.415Z,20.10
2018-06-11T09:30:11.706Z,18.60
2018-06-11T09:32:39.988Z,17.77
2018-06-11T09:35:08.327Z,18.33
2018-06-11T09:37:37.524Z,17.40
2018-06-11T09:40:05.894Z,17.70
2018-06-11T09:42:34.193Z,16.77
2018-06-11T09:45:02.502Z,19.13
2018-06-11T09:47:30.817Z,14.90
2018-06-11T09:49:59.120Z,15.60
2018-06-11T09:52:27.416Z,15.80
2018-06-11T09:54:55.725Z,16.07
2018-06-11T09:57:23.739Z,16.17
2018-06-11T09:59:52.069Z,16.13
2018-06-11T10:02:20.363Z,16.47
2018-06-11T10:04:48.648Z,15.37
2018-06-11T10:07:16.928Z,15.20
2018-06-11T10:09:45.209Z,15.70
2018-06-11T10:12:13.620Z,13.80
2018-06-11T10:14:41.830Z,13.70
2018-06-11T10:17:09.864Z,13.53
2018-06-11T10:19:38.152Z,13.67
2018-06-11T10:22:06.446Z,13.93
2018-06-11T10:24:34.758Z,12.90
2018-06-11T10:27:03.044Z,12.00
2018-06-11T10:29:31.367Z,11.60
2018-06-11T10:31:59.419Z,11.30
2018-06-11T10:34:27.716Z,11.97
2018-06-11T10:36:56.074Z,12.07
2018-06-11T10:39:24.370Z,12.23
2018-06-11T10:41:52.648Z,12.70
2018-06-11T10:44:20.962Z,11.07
2018-06-11T10:46:49.272Z,11.37
2018-06-11T10:49:17.599Z,12.20
2018-06-11T10:51:45.883Z,11.83
2018-06-11T10:54:14.190Z,12.10
2018-06-11T10:56:42.488Z,12.90
2018-06-11T10:59:10.772Z,12.73
2018-06-11T11:01:39.089Z,14.87
2018-06-11T11:04:07.385Z,14.30
2018-06-11T11:06:35.712Z,12.50
2018-06-11T11:09:05.806Z,12.57
2018-06-11T11:11:34.350Z,13.00
2018-06-11T11:14:02.638Z,23.17
2018-06-11T11:16:30.670Z,25.17
2018-06-11T11:18:58.962Z,46.10
2018-06-11T11:21:27.270Z,14.83
2018-06-11T11:23:55.609Z,12.93
2018-06-11T11:26:23.938Z,14.33
2018-06-11T11:28:52.240Z,13.03
2018-06-11T11:31:20.238Z,13.27
2018-06-11T11:33:48.644Z,12.03
2018-06-11T11:36:16.862Z,13.50
2018-06-11T11:38:45.191Z,11.77
2018-06-11T11:41:13.468Z,11.90
2018-06-11T11:43:41.758Z,11.17
2018-06-11T11:46:10.057Z,12.00
2018-06-11T11:48:38.352Z,11.73
2018-06-11T11:51:06.719Z,12.63
2018-06-11T11:53:34.694Z,10.30
2018-06-11T11:56:02.996Z,9.97
2018-06-11T11:58:31.295Z,9.07
2018-06-11T12:00:59.577Z,9.20
2018-06-11T12:03:27.919Z,8.30
2018-06-11T12:05:56.230Z,9.47
2018-06-11T12:08:24.534Z,8.70
2018-06-11T12:10:52.824Z,9.23
2018-06-11T12:13:21.099Z,9.10
2018-06-11T12:15:49.508Z,8.60
2018-06-11T12:18:17.842Z,7.97
2018-06-11T12:20:46.141Z,3.80
2018-06-11T12:23:14.461Z,1.30
2018-06-11T12:25:42.775Z,1.80
2018-06-11T12:28:11.065Z,18.17
2018-06-11T12:30:39.340Z,20.87
2018-06-11T12:33:07.621Z,5.00
2018-06-11T12:35:35.931Z,4.30
2018-06-11T12:38:04.241Z,2.90
2018-06-11T12:40:32.584Z,4.60
2018-06-11T12:43:00.870Z,4.80
2018-06-11T12:45:29.163Z,6.67
2018-06-11T12:47:57.452Z,5.50
2018-06-11T12:50:25.737Z,5.73
2018-06-11T12:52:54.102Z,6.13
2018-06-11T12:55:22.395Z,8.93
2018-06-11T12:57:50.687Z,10.23
2018-06-11T13:00:18.977Z,5.40
2018-06-11T13:02:47.256Z,6.27
2018-06-11T13:05:15.658Z,4.10
2018-06-11T13:07:43.659Z,6.43
2018-06-11T13:10:11.932Z,5.97
2018-06-11T13:12:40.229Z,3.87
2018-06-11T13:15:08.541Z,3.33
2018-06-11T13:17:36.832Z,3.13
2018-06-11T13:20:05.129Z,3.00
2018-06-11T13:22:33.471Z,5.30
2018-06-11T13:25:01.889Z,4.57
2018-06-11T13:27:32.637Z,3.90
2018-06-11T13:30:00.944Z,6.33
2018-06-11T13:32:29.257Z,4.73
2018-06-11T13:34:57.583Z,15.70
2018-06-11T13:37:25.868Z,8.43
2018-06-11T13:39:54.155Z,53.10
2018-06-11T13:42:22.294Z,4.63
2018-06-11T13:44:50.599Z,4.30
2018-06-11T13:47:18.881Z,6.83
2018-06-11T13:49:47.196Z,6.77
2018-06-11T13:52:15.470Z,6.57
2018-06-11T13:54:43.500Z,4.93
2018-06-11T13:57:11.527Z,4.97
2018-06-11T13:59:39.554Z,5.20
2018-06-11T14:02:07.864Z,5.27
2018-06-11T14:04:36.156Z,5.20
2018-06-11T14:07:04.448Z,8.60
2018-06-11T14:09:32.515Z,58.40
2018-06-11T14:12:01.323Z,28.63
2018-06-11T14:14:29.389Z,3.93
2018-06-11T14:16:57.709Z,5.30
2018-06-11T14:19:26.016Z,5.57
2018-06-11T14:21:54.309Z,7.10
2018-06-11T14:24:22.599Z,11.37
2018-06-11T14:26:50.893Z,12.60
2018-06-11T14:29:19.173Z,6.20
2018-06-11T14:31:47.511Z,7.73
2018-06-11T14:34:15.799Z,7.50
2018-06-11T14:36:44.065Z,6.40
2018-06-11T14:39:12.353Z,6.63
2018-06-11T14:41:40.646Z,4.13
2018-06-11T14:44:08.981Z,8.67
2018-06-11T14:46:37.263Z,4.80
2018-06-11T14:49:05.589Z,3.33
2018-06-11T14:51:33.883Z,4.10
2018-06-11T14:54:02.197Z,6.93
2018-06-11T14:56:30.579Z,5.67
2018-06-11T14:58:58.869Z,3.60
2018-06-11T15:01:27.171Z,2.67
2018-06-11T15:03:55.528Z,4.57
2018-06-11T15:06:23.837Z,4.40
2018-06-11T15:08:51.911Z,5.10
2018-06-11T15:11:20.296Z,5.83
2018-06-11T15:13:48.645Z,2.90
2018-06-11T15:16:16.949Z,3.70
2018-06-11T15:18:45.219Z,3.53
2018-06-11T15:21:13.578Z,4.20
2018-06-11T15:23:41.969Z,6.63
2018-06-11T15:26:10.267Z,4.00
2018-06-11T15:28:38.620Z,3.80
2018-06-11T15:31:06.913Z,7.90
2018-06-11T15:33:35.241Z,4.67
2018-06-11T15:36:03.260Z,8.00
2018-06-11T15:38:31.535Z,3.90
2018-06-11T15:40:59.821Z,3.90
2018-06-11T15:43:28.117Z,4.30
2018-06-11T15:45:56.411Z,5.17
2018-06-11T15:48:24.707Z,7.43
2018-06-11T15:50:52.992Z,8.40
2018-06-11T15:53:21.277Z,5.37
2018-06-11T15:55:49.706Z,2.60
2018-06-11T15:58:18.120Z,3.30
2018-06-11T16:00:46.449Z,4.30
2018-06-11T16:03:14.812Z,4.27
2018-06-11T16:08:17.734Z,5.83
2018-06-11T16:10:46.093Z,7.87
2018-06-11T16:13:14.397Z,5.23
2018-06-11T16:15:42.693Z,5.70
2018-06-11T16:18:10.979Z,14.87
2018-06-11T16:20:39.279Z,4.33
2018-06-11T16:23:07.600Z,6.20
2018-06-11T16:25:35.885Z,4.77
2018-06-11T16:28:04.299Z,5.50
2018-06-11T16:30:32.586Z,6.87
2018-06-11T16:33:00.883Z,7.00
2018-06-11T16:35:28.974Z,5.10
2018-06-11T16:37:57.304Z,2.30
2018-06-11T16:40:25.648Z,327.67
2018-06-11T16:42:54.091Z,59.17
2018-06-11T16:45:22.320Z,19.90
2018-06-11T16:47:50.649Z,5.90
2018-06-11T16:50:18.935Z,4.00
2018-06-11T16:52:47.247Z,3.63
2018-06-11T16:55:15.596Z,2.80
2018-06-11T16:57:43.902Z,3.13
2018-06-11T17:00:11.950Z,2.00
2018-06-11T17:02:40.266Z,1.93
2018-06-11T17:05:08.575Z,2.03
2018-06-11T17:07:36.889Z,2.70
2018-06-11T17:10:05.207Z,2.20
2018-06-11T17:12:33.277Z,2.60
2018-06-11T17:15:01.569Z,3.77
2018-06-11T17:17:29.865Z,2.13
2018-06-11T17:19:58.179Z,2.53
2018-06-11T17:22:26.461Z,3.43
2018-06-11T17:24:54.828Z,2.27
2018-06-11T17:27:23.113Z,3.87
2018-06-11T17:29:51.415Z,2.50
2018-06-11T17:32:19.705Z,2.67
2018-06-11T17:34:48.039Z,2.93
2018-06-11T17:37:16.395Z,3.87
2018-06-11T17:39:44.730Z,3.40
2018-06-11T17:42:13.135Z,2.07
2018-06-11T17:44:41.449Z,2.10
2018-06-11T17:47:09.749Z,2.33
2018-06-11T17:49:37.843Z,3.90
2018-06-11T17:52:06.259Z,2.37
2018-06-11T17:54:34.560Z,2.60
2018-06-11T17:57:02.675Z,5.33
2018-06-11T17:59:30.970Z,2.60
2018-06-11T18:01:59.357Z,2.20
2018-06-11T18:04:27.771Z,2.03
2018-06-11T18:06:56.041Z,3.97
2018-06-11T18:09:24.463Z,3.17
2018-06-11T18:11:52.821Z,5.07
2018-06-11T18:14:21.171Z,2.27
2018-06-11T18:16:49.193Z,2.67
2018-06-11T18:19:17.537Z,3.07
2018-06-11T18:21:45.897Z,8.00
2018-06-11T18:24:14.244Z,6.17
2018-06-11T18:26:43.599Z,3.90
2018-06-11T18:29:11.947Z,8.77
2018-06-11T18:31:40.277Z,3.67
2018-06-11T18:34:08.623Z,3.40
2018-06-11T18:36:37.315Z,3.93
2018-06-11T18:39:08.149Z,3.20
2018-06-11T18:41:36.912Z,4.87
2018-06-11T18:44:05.441Z,6.20
2018-06-11T18:46:33.862Z,4.40
2018-06-11T18:49:02.310Z,4.90
2018-06-11T18:51:30.719Z,5.40
2018-06-11T18:53:59.060Z,4.53
2018-06-11T18:56:27.472Z,6.43
2018-06-11T18:58:55.839Z,5.17
2018-06-11T19:01:24.193Z,6.27
2018-06-11T19:03:52.588Z,7.90
2018-06-11T19:06:21.039Z,11.33
2018-06-11T19:08:50.331Z,11.33
2018-06-11T19:11:18.447Z,8.07
2018-06-11T19:13:46.809Z,9.60
2018-06-11T19:16:15.179Z,9.47
2018-06-11T19:18:43.352Z,10.93
2018-06-11T19:21:11.690Z,10.63
2018-06-11T19:23:39.741Z,9.90
2018-06-11T19:26:08.194Z,9.90
2018-06-11T19:28:36.323Z,16.90
2018-06-11T19:31:04.740Z,13.77
2018-06-11T19:33:33.116Z,13.23
2018-06-11T19:36:01.502Z,13.23
2018-06-11T19:38:29.927Z,14.93
2018-06-11T19:40:58.326Z,16.90
2018-06-11T19:43:26.761Z,15.83
2018-06-11T19:45:55.123Z,19.67
2018-06-11T19:48:23.461Z,26.93
2018-06-11T19:50:51.621Z,28.87
2018-06-11T19:53:19.953Z,22.60
2018-06-11T19:55:48.324Z,22.00
2018-06-11T19:58:16.698Z,24.03
2018-06-11T20:00:45.075Z,20.03
2018-06-11T20:03:13.203Z,21.67
2018-06-11T20:05:41.642Z,20.77
2018-06-11T20:08:09.741Z,25.70
2018-06-11T20:10:38.458Z,23.47
2018-06-11T20:13:06.969Z,27.00
2018-06-11T20:15:35.314Z,156.87
2018-06-11T20:18:03.658Z,42.53
2018-06-11T20:20:32.115Z,113.47
2018-06-11T20:23:00.482Z,37.87
2018-06-11T20:25:29.209Z,19.17
2018-06-11T20:27:57.671Z,20.93
2018-06-11T20:30:26.034Z,22.77
2018-06-11T20:32:54.374Z,18.60
2018-06-11T20:35:22.485Z,19.17
2018-06-11T20:37:50.828Z,22.03
2018-06-11T20:40:19.220Z,37.03
2018-06-11T20:42:47.566Z,20.93
2018-06-11T20:45:15.884Z,25.80
2018-06-11T20:47:44.205Z,21.73
2018-06-11T20:50:12.556Z,24.77
2018-06-11T20:52:40.648Z,22.00
2018-06-11T20:55:09.001Z,64.97
2018-06-11T20:57:37.332Z,89.30
2018-06-11T21:00:05.867Z,30.50
2018-06-11T21:02:34.188Z,29.50
2018-06-11T21:05:02.490Z,96.63
2018-06-11T21:07:30.833Z,34.33
2018-06-11T21:09:59.135Z,65.33
2018-06-11T21:12:27.442Z,183.77
2018-06-11T21:14:55.735Z,404.27
2018-06-11T21:17:24.033Z,224.23
2018-06-11T21:19:52.352Z,159.53
2018-06-11T21:22:20.646Z,261.07
2018-06-11T21:24:48.952Z,143.40
2018-06-11T21:27:17.260Z,83.00
2018-06-11T21:29:45.574Z,77.07
2018-06-11T21:32:13.904Z,41.97
2018-06-11T21:34:42.182Z,46.10
2018-06-11T21:37:10.468Z,52.00
2018-06-11T21:39:38.764Z,48.27
2018-06-11T21:42:07.065Z,65.17
2018-06-11T21:44:35.405Z,51.27
2018-06-11T21:47:03.723Z,46.50
2018-06-11T21:49:32.009Z,55.10
2018-06-11T21:52:00.321Z,55.73
2018-06-11T21:54:28.586Z,44.03
2018-06-11T21:56:56.906Z,48.80
2018-06-11T21:59:24.905Z,83.27
2018-06-11T22:01:53.271Z,108.67
2018-06-11T22:04:21.559Z,65.40
2018-06-11T22:06:49.918Z,38.77
2018-06-11T22:09:18.226Z,38.90
2018-06-11T22:11:46.528Z,36.90
2018-06-11T22:14:14.806Z,33.87
2018-06-11T22:16:43.086Z,31.40
2018-06-11T22:19:11.415Z,40.60
2018-06-11T22:21:39.700Z,56.00
2018-06-11T22:24:07.969Z,37.13
2018-06-11T22:26:36.322Z,61.60
2018-06-11T22:29:04.656Z,55.63
2018-06-11T22:31:32.964Z,52.80
2018-06-11T22:34:01.440Z,68.03
2018-06-11T22:36:29.454Z,115.17
2018-06-11T22:38:57.785Z,95.57
2018-06-11T22:41:26.084Z,151.97
2018-06-11T22:43:54.414Z,138.20
2018-06-11T22:46:22.698Z,47.40
2018-06-11T22:48:51.004Z,101.53
2018-06-11T22:51:19.297Z,175.80
2018-06-11T22:53:47.656Z,167.93
2018-06-11T22:56:16.008Z,93.67
2018-06-11T22:58:44.298Z,64.70
2018-06-11T23:01:12.600Z,200.27
2018-06-11T23:03:40.902Z,230.43
2018-06-11T23:06:09.189Z,91.10
2018-06-11T23:08:37.478Z,389.97
2018-06-11T23:11:05.831Z,117.23
2018-06-11T23:13:34.113Z,505.20
2018-06-11T23:16:02.428Z,157.57
2018-06-11T23:18:30.723Z,212.57
2018-06-11T23:20:58.773Z,59.43
2018-06-11T23:23:27.089Z,115.73
2018-06-11T23:25:55.390Z,92.13
2018-06-11T23:28:23.678Z,266.47
2018-06-11T23:30:51.968Z,233.70
2018-06-11T23:33:20.258Z,217.90
2018-06-11T23:35:48.606Z,446.93
2018-06-11T23:38:16.911Z,315.50
2018-06-11T23:40:45.218Z,224.10
2018-06-11T23:43:13.588Z,96.90
2018-06-11T23:45:41.890Z,113.47
2018-06-11T23:48:10.217Z,105.17
2018-06-11T23:50:38.418Z,37.03
2018-06-11T23:53:06.716Z,46.33
2018-06-11T23:55:35.116Z,35.53
2018-06-11T23:58:03.652Z,55.20
